sensor_id;sensor_type;location;lat;lon;timestamp;P1;durP1;ratioP1;P2;durP2;ratioP2
54460;SDS011;40371;49.414;11.010;2023-04-06T00:01:20;8.67;;;7.00;;
54460;SDS011;40371;49.414;11.010;2023-04-06T00:03:45;7.30;;;6.37;;
54460;SDS011;40371;49.414;11.010;2023-04-06T00:06:11;8.27;;;6.60;;
54460;SDS011;40371;49.414;11.010;2023-04-06T00:08:36;11.37;;;5.83;;
54460;SDS011;40371;49.414;11.010;2023-04-06T00:11:02;9.80;;;7.67;;
54460;SDS011;40371;49.414;11.010;2023-04-06T00:13:28;8.37;;;6.83;;
54460;SDS011;40371;49.414;11.010;2023-04-06T00:15:53;7.50;;;6.67;;
54460;SDS011;40371;49.414;11.010;2023-04-06T00:18:19;8.60;;;7.43;;
54460;SDS011;40371;49.414;11.010;2023-04-06T00:20:44;11.00;;;7.20;;
54460;SDS011;40371;49.414;11.010;2023-04-06T00:23:10;7.57;;;6.30;;
54460;SDS011;40371;49.414;11.010;2023-04-06T00:25:35;8.37;;;6.50;;
54460;SDS011;40371;49.414;11.010;2023-04-06T00:28:01;8.87;;;6.00;;
54460;SDS011;40371;49.414;11.010;2023-04-06T00:30:28;10.90;;;6.63;;
54460;SDS011;40371;49.414;11.010;2023-04-06T00:32:53;7.30;;;6.27;;
54460;SDS011;40371;49.414;11.010;2023-04-06T00:35:19;9.57;;;5.73;;
54460;SDS011;40371;49.414;11.010;2023-04-06T00:37:45;6.57;;;5.87;;
54460;SDS011;40371;49.414;11.010;2023-04-06T00:40:12;6.50;;;5.90;;
54460;SDS011;40371;49.414;11.010;2023-04-06T00:42:38;7.47;;;5.77;;
54460;SDS011;40371;49.414;11.010;2023-04-06T00:45:04;7.47;;;5.60;;
54460;SDS011;40371;49.414;11.010;2023-04-06T00:47:29;7.80;;;5.87;;
54460;SDS011;40371;49.414;11.010;2023-04-06T00:49:56;6.60;;;5.80;;
54460;SDS011;40371;49.414;11.010;2023-04-06T00:52:22;9.30;;;5.57;;
54460;SDS011;40371;49.414;11.010;2023-04-06T00:54:48;6.17;;;5.10;;
54460;SDS011;40371;49.414;11.010;2023-04-06T00:57:16;6.50;;;5.83;;
54460;SDS011;40371;49.414;11.010;2023-04-06T00:59:43;6.40;;;5.10;;
54460;SDS011;40371;49.414;11.010;2023-04-06T01:02:11;5.83;;;5.23;;
54460;SDS011;40371;49.414;11.010;2023-04-06T01:04:43;6.43;;;5.57;;
54460;SDS011;40371;49.414;11.010;2023-04-06T01:07:16;6.27;;;5.30;;
54460;SDS011;40371;49.414;11.010;2023-04-06T01:09:55;6.67;;;5.73;;
54460;SDS011;40371;49.414;11.010;2023-04-06T01:12:24;6.53;;;5.77;;
54460;SDS011;40371;49.414;11.010;2023-04-06T01:14:50;7.37;;;5.43;;
54460;SDS011;40371;49.414;11.010;2023-04-06T01:17:17;6.53;;;5.77;;
54460;SDS011;40371;49.414;11.010;2023-04-06T01:19:44;6.37;;;5.23;;
54460;SDS011;40371;49.414;11.010;2023-04-06T01:22:17;5.63;;;4.93;;
54460;SDS011;40371;49.414;11.010;2023-04-06T01:24:50;8.37;;;5.60;;
54460;SDS011;40371;49.414;11.010;2023-04-06T01:27:22;7.60;;;5.83;;
54460;SDS011;40371;49.414;11.010;2023-04-06T01:30:22;7.77;;;5.53;;
54460;SDS011;40371;49.414;11.010;2023-04-06T01:32:58;6.20;;;5.53;;
54460;SDS011;40371;49.414;11.010;2023-04-06T01:35:39;7.83;;;4.93;;
54460;SDS011;40371;49.414;11.010;2023-04-06T01:38:17;8.87;;;6.40;;
54460;SDS011;40371;49.414;11.010;2023-04-06T01:40:43;6.90;;;5.77;;
54460;SDS011;40371;49.414;11.010;2023-04-06T01:43:10;7.07;;;5.77;;
54460;SDS011;40371;49.414;11.010;2023-04-06T01:45:47;6.73;;;5.57;;
54460;SDS011;40371;49.414;11.010;2023-04-06T01:48:18;6.37;;;5.77;;
54460;SDS011;40371;49.414;11.010;2023-04-06T01:50:44;6.70;;;5.63;;
54460;SDS011;40371;49.414;11.010;2023-04-06T01:53:12;9.67;;;5.20;;
54460;SDS011;40371;49.414;11.010;2023-04-06T01:55:40;6.03;;;5.17;;
54460;SDS011;40371;49.414;11.010;2023-04-06T01:58:18;6.77;;;5.40;;
54460;SDS011;40371;49.414;11.010;2023-04-06T02:00:44;6.43;;;5.53;;
54460;SDS011;40371;49.414;11.010;2023-04-06T02:03:10;6.63;;;5.73;;
54460;SDS011;40371;49.414;11.010;2023-04-06T02:05:36;5.90;;;5.30;;
54460;SDS011;40371;49.414;11.010;2023-04-06T02:08:11;5.97;;;5.07;;
54460;SDS011;40371;49.414;11.010;2023-04-06T02:10:37;6.43;;;5.43;;
54460;SDS011;40371;49.414;11.010;2023-04-06T02:13:11;6.47;;;5.40;;
54460;SDS011;40371;49.414;11.010;2023-04-06T02:15:39;4.97;;;4.47;;
54460;SDS011;40371;49.414;11.010;2023-04-06T02:18:05;6.07;;;5.40;;
54460;SDS011;40371;49.414;11.010;2023-04-06T02:20:30;5.63;;;4.83;;
54460;SDS011;40371;49.414;11.010;2023-04-06T02:22:58;7.97;;;5.30;;
54460;SDS011;40371;49.414;11.010;2023-04-06T02:25:24;5.53;;;4.77;;
54460;SDS011;40371;49.414;11.010;2023-04-06T02:27:50;7.27;;;5.30;;
54460;SDS011;40371;49.414;11.010;2023-04-06T02:30:16;5.37;;;4.83;;
54460;SDS011;40371;49.414;11.010;2023-04-06T02:32:41;5.97;;;4.53;;
54460;SDS011;40371;49.414;11.010;2023-04-06T02:35:07;5.77;;;4.70;;
54460;SDS011;40371;49.414;11.010;2023-04-06T02:37:34;5.87;;;5.20;;
54460;SDS011;40371;49.414;11.010;2023-04-06T02:39:59;7.90;;;5.33;;
54460;SDS011;40371;49.414;11.010;2023-04-06T02:42:26;7.60;;;5.10;;
54460;SDS011;40371;49.414;11.010;2023-04-06T02:44:52;4.93;;;4.50;;
54460;SDS011;40371;49.414;11.010;2023-04-06T02:47:19;6.10;;;5.13;;
54460;SDS011;40371;49.414;11.010;2023-04-06T02:49:48;5.57;;;4.80;;
54460;SDS011;40371;49.414;11.010;2023-04-06T02:52:14;6.10;;;5.30;;
54460;SDS011;40371;49.414;11.010;2023-04-06T02:54:40;5.70;;;5.10;;
54460;SDS011;40371;49.414;11.010;2023-04-06T02:57:06;5.93;;;5.33;;
54460;SDS011;40371;49.414;11.010;2023-04-06T02:59:38;6.17;;;4.97;;
54460;SDS011;40371;49.414;11.010;2023-04-06T03:02:12;10.20;;;5.10;;
54460;SDS011;40371;49.414;11.010;2023-04-06T03:04:38;5.57;;;4.90;;
54460;SDS011;40371;49.414;11.010;2023-04-06T03:07:10;5.83;;;5.10;;
54460;SDS011;40371;49.414;11.010;2023-04-06T03:09:37;5.40;;;4.90;;
54460;SDS011;40371;49.414;11.010;2023-04-06T03:12:03;5.10;;;4.60;;
54460;SDS011;40371;49.414;11.010;2023-04-06T03:14:34;7.47;;;5.30;;
54460;SDS011;40371;49.414;11.010;2023-04-06T03:17:01;8.20;;;4.93;;
54460;SDS011;40371;49.414;11.010;2023-04-06T03:19:28;6.20;;;4.97;;
54460;SDS011;40371;49.414;11.010;2023-04-06T03:21:57;6.17;;;5.57;;
54460;SDS011;40371;49.414;11.010;2023-04-06T03:24:23;5.50;;;5.00;;
54460;SDS011;40371;49.414;11.010;2023-04-06T03:26:49;5.93;;;5.33;;
54460;SDS011;40371;49.414;11.010;2023-04-06T03:29:15;7.93;;;5.60;;
54460;SDS011;40371;49.414;11.010;2023-04-06T03:31:41;5.43;;;4.70;;
54460;SDS011;40371;49.414;11.010;2023-04-06T03:34:19;6.53;;;5.40;;
54460;SDS011;40371;49.414;11.010;2023-04-06T03:36:45;6.37;;;5.30;;
54460;SDS011;40371;49.414;11.010;2023-04-06T03:39:10;7.93;;;5.43;;
54460;SDS011;40371;49.414;11.010;2023-04-06T03:41:39;5.57;;;4.87;;
54460;SDS011;40371;49.414;11.010;2023-04-06T03:44:30;5.30;;;4.47;;
54460;SDS011;40371;49.414;11.010;2023-04-06T03:46:56;6.20;;;5.23;;
54460;SDS011;40371;49.414;11.010;2023-04-06T03:49:22;5.63;;;5.03;;
54460;SDS011;40371;49.414;11.010;2023-04-06T03:51:50;5.23;;;4.80;;
54460;SDS011;40371;49.414;11.010;2023-04-06T03:54:15;6.13;;;5.43;;
54460;SDS011;40371;49.414;11.010;2023-04-06T03:56:41;7.17;;;5.20;;
54460;SDS011;40371;49.414;11.010;2023-04-06T03:59:07;5.20;;;4.70;;
54460;SDS011;40371;49.414;11.010;2023-04-06T04:01:32;6.33;;;5.07;;
54460;SDS011;40371;49.414;11.010;2023-04-06T04:03:58;5.13;;;4.63;;
54460;SDS011;40371;49.414;11.010;2023-04-06T04:06:23;6.27;;;4.87;;
54460;SDS011;40371;49.414;11.010;2023-04-06T04:08:50;6.30;;;5.20;;
54460;SDS011;40371;49.414;11.010;2023-04-06T04:11:15;5.00;;;4.53;;
54460;SDS011;40371;49.414;11.010;2023-04-06T04:13:41;6.70;;;4.60;;
54460;SDS011;40371;49.414;11.010;2023-04-06T04:16:08;5.30;;;4.30;;
54460;SDS011;40371;49.414;11.010;2023-04-06T04:18:34;6.57;;;4.70;;
54460;SDS011;40371;49.414;11.010;2023-04-06T04:21:00;5.90;;;4.83;;
54460;SDS011;40371;49.414;11.010;2023-04-06T04:23:25;5.97;;;4.23;;
54460;SDS011;40371;49.414;11.010;2023-04-06T04:25:51;7.13;;;4.73;;
54460;SDS011;40371;49.414;11.010;2023-04-06T04:28:17;7.70;;;4.80;;
54460;SDS011;40371;49.414;11.010;2023-04-06T04:30:43;5.90;;;4.67;;
54460;SDS011;40371;49.414;11.010;2023-04-06T04:33:10;5.87;;;4.90;;
54460;SDS011;40371;49.414;11.010;2023-04-06T04:35:36;6.07;;;4.60;;
54460;SDS011;40371;49.414;11.010;2023-04-06T04:38:03;5.50;;;4.53;;
54460;SDS011;40371;49.414;11.010;2023-04-06T04:40:29;5.60;;;4.53;;
54460;SDS011;40371;49.414;11.010;2023-04-06T04:43:03;5.20;;;4.70;;
54460;SDS011;40371;49.414;11.010;2023-04-06T04:45:32;5.13;;;4.47;;
54460;SDS011;40371;49.414;11.010;2023-04-06T04:48:03;8.77;;;4.70;;
54460;SDS011;40371;49.414;11.010;2023-04-06T04:50:37;7.37;;;4.73;;
54460;SDS011;40371;49.414;11.010;2023-04-06T04:53:03;6.03;;;4.10;;
54460;SDS011;40371;49.414;11.010;2023-04-06T04:55:31;4.60;;;4.10;;
54460;SDS011;40371;49.414;11.010;2023-04-06T04:57:58;5.67;;;4.30;;
54460;SDS011;40371;49.414;11.010;2023-04-06T05:00:36;6.03;;;4.50;;
54460;SDS011;40371;49.414;11.010;2023-04-06T05:03:02;5.17;;;4.60;;
54460;SDS011;40371;49.414;11.010;2023-04-06T05:05:32;5.70;;;4.63;;
54460;SDS011;40371;49.414;11.010;2023-04-06T05:07:59;6.27;;;4.47;;
54460;SDS011;40371;49.414;11.010;2023-04-06T05:10:45;6.10;;;4.80;;
54460;SDS011;40371;49.414;11.010;2023-04-06T05:13:11;6.23;;;4.47;;
54460;SDS011;40371;49.414;11.010;2023-04-06T05:15:38;5.97;;;4.53;;
54460;SDS011;40371;49.414;11.010;2023-04-06T05:18:12;6.73;;;4.57;;
54460;SDS011;40371;49.414;11.010;2023-04-06T05:20:38;6.20;;;4.27;;
54460;SDS011;40371;49.414;11.010;2023-04-06T05:23:04;5.20;;;4.70;;
54460;SDS011;40371;49.414;11.010;2023-04-06T05:25:30;6.13;;;4.63;;
54460;SDS011;40371;49.414;11.010;2023-04-06T05:28:03;7.03;;;4.70;;
54460;SDS011;40371;49.414;11.010;2023-04-06T05:30:32;7.77;;;5.00;;
54460;SDS011;40371;49.414;11.010;2023-04-06T05:32:58;5.53;;;4.53;;
54460;SDS011;40371;49.414;11.010;2023-04-06T05:35:28;6.57;;;5.00;;
54460;SDS011;40371;49.414;11.010;2023-04-06T05:37:58;5.27;;;4.70;;
54460;SDS011;40371;49.414;11.010;2023-04-06T05:40:25;5.00;;;4.23;;
54460;SDS011;40371;49.414;11.010;2023-04-06T05:42:51;4.73;;;4.23;;
54460;SDS011;40371;49.414;11.010;2023-04-06T05:45:19;5.30;;;4.80;;
54460;SDS011;40371;49.414;11.010;2023-04-06T05:47:50;5.03;;;4.53;;
54460;SDS011;40371;49.414;11.010;2023-04-06T05:50:23;5.37;;;4.63;;
54460;SDS011;40371;49.414;11.010;2023-04-06T05:52:49;5.63;;;5.00;;
54460;SDS011;40371;49.414;11.010;2023-04-06T05:55:18;6.77;;;4.37;;
54460;SDS011;40371;49.414;11.010;2023-04-06T05:57:49;5.40;;;4.20;;
54460;SDS011;40371;49.414;11.010;2023-04-06T06:00:17;9.30;;;5.03;;
54460;SDS011;40371;49.414;11.010;2023-04-06T06:02:52;7.00;;;4.60;;
54460;SDS011;40371;49.414;11.010;2023-04-06T06:05:22;8.63;;;4.97;;
54460;SDS011;40371;49.414;11.010;2023-04-06T06:07:48;8.27;;;4.97;;
54460;SDS011;40371;49.414;11.010;2023-04-06T06:10:14;5.78;;;4.60;;
54460;SDS011;40371;49.414;11.010;2023-04-06T06:12:40;6.27;;;5.20;;
54460;SDS011;40371;49.414;11.010;2023-04-06T06:15:06;7.73;;;4.13;;
54460;SDS011;40371;49.414;11.010;2023-04-06T06:17:36;7.70;;;4.90;;
54460;SDS011;40371;49.414;11.010;2023-04-06T06:20:04;5.97;;;4.30;;
54460;SDS011;40371;49.414;11.010;2023-04-06T06:22:33;6.90;;;4.57;;
54460;SDS011;40371;49.414;11.010;2023-04-06T06:25:00;8.17;;;4.67;;
54460;SDS011;40371;49.414;11.010;2023-04-06T06:27:26;6.23;;;4.93;;
54460;SDS011;40371;49.414;11.010;2023-04-06T06:29:52;5.10;;;4.60;;
54460;SDS011;40371;49.414;11.010;2023-04-06T06:32:17;4.40;;;4.00;;
54460;SDS011;40371;49.414;11.010;2023-04-06T06:34:47;5.27;;;4.20;;
54460;SDS011;40371;49.414;11.010;2023-04-06T06:37:12;5.10;;;4.00;;
54460;SDS011;40371;49.414;11.010;2023-04-06T06:39:38;7.50;;;5.03;;
54460;SDS011;40371;49.414;11.010;2023-04-06T06:42:04;5.30;;;4.33;;
54460;SDS011;40371;49.414;11.010;2023-04-06T06:44:46;4.33;;;3.93;;
54460;SDS011;40371;49.414;11.010;2023-04-06T06:47:12;4.57;;;4.00;;
54460;SDS011;40371;49.414;11.010;2023-04-06T06:49:38;5.00;;;3.87;;
54460;SDS011;40371;49.414;11.010;2023-04-06T06:52:03;4.23;;;3.83;;
54460;SDS011;40371;49.414;11.010;2023-04-06T06:54:29;4.80;;;4.30;;
54460;SDS011;40371;49.414;11.010;2023-04-06T06:56:55;3.87;;;3.47;;
54460;SDS011;40371;49.414;11.010;2023-04-06T06:59:20;6.90;;;3.87;;
54460;SDS011;40371;49.414;11.010;2023-04-06T07:01:47;5.80;;;3.80;;
54460;SDS011;40371;49.414;11.010;2023-04-06T07:04:12;3.93;;;3.53;;
54460;SDS011;40371;49.414;11.010;2023-04-06T07:06:38;4.27;;;3.83;;
54460;SDS011;40371;49.414;11.010;2023-04-06T07:09:05;3.53;;;3.23;;
54460;SDS011;40371;49.414;11.010;2023-04-06T07:11:31;4.93;;;4.10;;
54460;SDS011;40371;49.414;11.010;2023-04-06T07:13:57;3.83;;;3.53;;
54460;SDS011;40371;49.414;11.010;2023-04-06T07:16:22;4.03;;;3.60;;
54460;SDS011;40371;49.414;11.010;2023-04-06T07:18:48;4.67;;;4.03;;
54460;SDS011;40371;49.414;11.010;2023-04-06T07:21:14;5.67;;;3.80;;
54460;SDS011;40371;49.414;11.010;2023-04-06T07:23:40;5.53;;;4.40;;
54460;SDS011;40371;49.414;11.010;2023-04-06T07:26:06;4.37;;;3.90;;
54460;SDS011;40371;49.414;11.010;2023-04-06T07:28:32;4.97;;;4.37;;
54460;SDS011;40371;49.414;11.010;2023-04-06T07:30:59;4.30;;;3.90;;
54460;SDS011;40371;49.414;11.010;2023-04-06T07:33:25;5.07;;;4.00;;
54460;SDS011;40371;49.414;11.010;2023-04-06T07:35:55;7.47;;;4.67;;
54460;SDS011;40371;49.414;11.010;2023-04-06T07:38:22;8.10;;;4.50;;
54460;SDS011;40371;49.414;11.010;2023-04-06T07:40:48;7.63;;;4.73;;
54460;SDS011;40371;49.414;11.010;2023-04-06T07:43:14;6.10;;;5.07;;
54460;SDS011;40371;49.414;11.010;2023-04-06T07:45:40;7.50;;;4.83;;
54460;SDS011;40371;49.414;11.010;2023-04-06T07:48:06;5.47;;;4.87;;
54460;SDS011;40371;49.414;11.010;2023-04-06T07:50:33;7.27;;;4.70;;
54460;SDS011;40371;49.414;11.010;2023-04-06T07:52:59;7.97;;;4.97;;
54460;SDS011;40371;49.414;11.010;2023-04-06T07:55:26;5.73;;;4.30;;
54460;SDS011;40371;49.414;11.010;2023-04-06T07:57:51;5.37;;;4.80;;
54460;SDS011;40371;49.414;11.010;2023-04-06T08:00:17;9.15;;;4.30;;
54460;SDS011;40371;49.414;11.010;2023-04-06T08:02:43;4.68;;;4.28;;
54460;SDS011;40371;49.414;11.010;2023-04-06T08:05:08;4.68;;;4.22;;
54460;SDS011;40371;49.414;11.010;2023-04-06T08:07:34;4.53;;;4.13;;
54460;SDS011;40371;49.414;11.010;2023-04-06T08:10:00;7.35;;;4.35;;
54460;SDS011;40371;49.414;11.010;2023-04-06T08:12:26;5.65;;;4.47;;
54460;SDS011;40371;49.414;11.010;2023-04-06T08:14:52;5.32;;;4.20;;
54460;SDS011;40371;49.414;11.010;2023-04-06T08:17:18;4.80;;;4.40;;
54460;SDS011;40371;49.414;11.010;2023-04-06T08:19:43;4.28;;;3.80;;
54460;SDS011;40371;49.414;11.010;2023-04-06T08:22:09;5.43;;;4.93;;
54460;SDS011;40371;49.414;11.010;2023-04-06T08:24:35;5.00;;;4.22;;
54460;SDS011;40371;49.414;11.010;2023-04-06T08:27:01;4.82;;;4.22;;
54460;SDS011;40371;49.414;11.010;2023-04-06T08:29:27;4.95;;;4.43;;
54460;SDS011;40371;49.414;11.010;2023-04-06T08:31:52;4.95;;;4.55;;
54460;SDS011;40371;49.414;11.010;2023-04-06T08:34:18;5.18;;;4.78;;
54460;SDS011;40371;49.414;11.010;2023-04-06T08:36:44;5.25;;;4.75;;
54460;SDS011;40371;49.414;11.010;2023-04-06T08:39:10;5.10;;;4.60;;
54460;SDS011;40371;49.414;11.010;2023-04-06T08:41:36;6.70;;;4.93;;
54460;SDS011;40371;49.414;11.010;2023-04-06T08:44:02;5.03;;;4.60;;
54460;SDS011;40371;49.414;11.010;2023-04-06T08:46:28;5.43;;;5.00;;
54460;SDS011;40371;49.414;11.010;2023-04-06T08:48:56;4.93;;;4.53;;
54460;SDS011;40371;49.414;11.010;2023-04-06T08:51:23;4.72;;;4.40;;
54460;SDS011;40371;49.414;11.010;2023-04-06T08:53:51;6.45;;;4.53;;
54460;SDS011;40371;49.414;11.010;2023-04-06T08:56:19;4.60;;;4.30;;
54460;SDS011;40371;49.414;11.010;2023-04-06T08:58:47;5.25;;;4.85;;
54460;SDS011;40371;49.414;11.010;2023-04-06T09:01:14;4.78;;;4.38;;
54460;SDS011;40371;49.414;11.010;2023-04-06T09:03:42;5.28;;;4.10;;
54460;SDS011;40371;49.414;11.010;2023-04-06T09:06:08;5.10;;;4.32;;
54460;SDS011;40371;49.414;11.010;2023-04-06T09:08:34;4.70;;;4.30;;
54460;SDS011;40371;49.414;11.010;2023-04-06T09:11:02;5.00;;;4.60;;
54460;SDS011;40371;49.414;11.010;2023-04-06T09:13:28;4.75;;;4.38;;
54460;SDS011;40371;49.414;11.010;2023-04-06T09:16:01;4.97;;;4.57;;
54460;SDS011;40371;49.414;11.010;2023-04-06T09:18:28;4.40;;;4.00;;
54460;SDS011;40371;49.414;11.010;2023-04-06T09:21:01;4.95;;;4.55;;
54460;SDS011;40371;49.414;11.010;2023-04-06T09:23:27;4.28;;;3.97;;
54460;SDS011;40371;49.414;11.010;2023-04-06T09:26:06;4.87;;;4.37;;
54460;SDS011;40371;49.414;11.010;2023-04-06T09:28:49;4.63;;;4.22;;
54460;SDS011;40371;49.414;11.010;2023-04-06T09:33:51;5.78;;;4.50;;
54460;SDS011;40371;49.414;11.010;2023-04-06T09:36:18;5.20;;;4.47;;
54460;SDS011;40371;49.414;11.010;2023-04-06T09:38:51;4.93;;;4.60;;
54460;SDS011;40371;49.414;11.010;2023-04-06T09:41:24;5.10;;;4.70;;
54460;SDS011;40371;49.414;11.010;2023-04-06T09:44:05;4.45;;;4.15;;
54460;SDS011;40371;49.414;11.010;2023-04-06T09:46:32;4.88;;;4.57;;
54460;SDS011;40371;49.414;11.010;2023-04-06T09:49:02;5.10;;;4.80;;
54460;SDS011;40371;49.414;11.010;2023-04-06T09:51:30;4.60;;;4.20;;
54460;SDS011;40371;49.414;11.010;2023-04-06T09:54:00;4.55;;;4.13;;
54460;SDS011;40371;49.414;11.010;2023-04-06T09:56:28;5.38;;;4.90;;
54460;SDS011;40371;49.414;11.010;2023-04-06T09:59:01;4.90;;;4.50;;
54460;SDS011;40371;49.414;11.010;2023-04-06T10:01:30;4.78;;;4.32;;
54460;SDS011;40371;49.414;11.010;2023-04-06T10:06:35;4.70;;;4.40;;
54460;SDS011;40371;49.414;11.010;2023-04-06T10:09:02;4.40;;;4.10;;
54460;SDS011;40371;49.414;11.010;2023-04-06T10:11:29;4.30;;;3.90;;
54460;SDS011;40371;49.414;11.010;2023-04-06T10:13:56;5.07;;;4.63;;
54460;SDS011;40371;49.414;11.010;2023-04-06T10:16:22;4.80;;;4.40;;
54460;SDS011;40371;49.414;11.010;2023-04-06T10:18:50;4.35;;;4.05;;
54460;SDS011;40371;49.414;11.010;2023-04-06T10:21:20;4.38;;;4.00;;
54460;SDS011;40371;49.414;11.010;2023-04-06T10:23:51;4.50;;;4.10;;
54460;SDS011;40371;49.414;11.010;2023-04-06T10:26:20;7.07;;;6.47;;
54460;SDS011;40371;49.414;11.010;2023-04-06T10:28:46;5.05;;;4.65;;
54460;SDS011;40371;49.414;11.010;2023-04-06T10:31:14;5.85;;;5.40;;
54460;SDS011;40371;49.414;11.010;2023-04-06T10:33:40;4.57;;;4.18;;
54460;SDS011;40371;49.414;11.010;2023-04-06T10:36:12;4.55;;;4.15;;
54460;SDS011;40371;49.414;11.010;2023-04-06T10:38:40;3.97;;;3.78;;
54460;SDS011;40371;49.414;11.010;2023-04-06T10:41:07;4.80;;;4.40;;
54460;SDS011;40371;49.414;11.010;2023-04-06T10:43:35;4.32;;;4.00;;
54460;SDS011;40371;49.414;11.010;2023-04-06T10:46:02;4.95;;;3.78;;
54460;SDS011;40371;49.414;11.010;2023-04-06T10:48:37;4.10;;;3.80;;
54460;SDS011;40371;49.414;11.010;2023-04-06T10:51:10;4.07;;;3.78;;
54460;SDS011;40371;49.414;11.010;2023-04-06T10:53:37;3.60;;;3.40;;
54460;SDS011;40371;49.414;11.010;2023-04-06T10:56:03;4.47;;;4.07;;
54460;SDS011;40371;49.414;11.010;2023-04-06T10:58:35;3.83;;;3.53;;
54460;SDS011;40371;49.414;11.010;2023-04-06T11:01:00;3.50;;;3.28;;
54460;SDS011;40371;49.414;11.010;2023-04-06T11:03:26;3.53;;;3.33;;
54460;SDS011;40371;49.414;11.010;2023-04-06T11:05:52;4.00;;;3.70;;
54460;SDS011;40371;49.414;11.010;2023-04-06T11:08:28;3.97;;;3.67;;
54460;SDS011;40371;49.414;11.010;2023-04-06T11:13:38;3.95;;;3.75;;
54460;SDS011;40371;49.414;11.010;2023-04-06T11:16:05;3.97;;;3.78;;
54460;SDS011;40371;49.414;11.010;2023-04-06T11:18:31;4.28;;;3.97;;
54460;SDS011;40371;49.414;11.010;2023-04-06T11:20:56;3.72;;;3.42;;
54460;SDS011;40371;49.414;11.010;2023-04-06T11:23:25;4.30;;;4.00;;
54460;SDS011;40371;49.414;11.010;2023-04-06T11:25:51;3.50;;;3.20;;
54460;SDS011;40371;49.414;11.010;2023-04-06T11:28:18;3.10;;;2.90;;
54460;SDS011;40371;49.414;11.010;2023-04-06T11:30:44;3.50;;;3.28;;
54460;SDS011;40371;49.414;11.010;2023-04-06T11:33:10;3.58;;;3.33;;
54460;SDS011;40371;49.414;11.010;2023-04-06T11:35:36;4.38;;;3.95;;
54460;SDS011;40371;49.414;11.010;2023-04-06T11:38:02;3.40;;;3.20;;
54460;SDS011;40371;49.414;11.010;2023-04-06T11:40:29;4.53;;;4.10;;
54460;SDS011;40371;49.414;11.010;2023-04-06T11:42:55;4.18;;;3.97;;
54460;SDS011;40371;49.414;11.010;2023-04-06T11:45:21;4.38;;;4.07;;
54460;SDS011;40371;49.414;11.010;2023-04-06T11:47:55;4.20;;;3.90;;
54460;SDS011;40371;49.414;11.010;2023-04-06T11:50:22;4.30;;;3.90;;
54460;SDS011;40371;49.414;11.010;2023-04-06T11:52:48;4.65;;;4.25;;
54460;SDS011;40371;49.414;11.010;2023-04-06T11:55:25;4.50;;;4.15;;
54460;SDS011;40371;49.414;11.010;2023-04-06T11:57:50;4.20;;;3.90;;
54460;SDS011;40371;49.414;11.010;2023-04-06T12:00:16;4.63;;;4.30;;
54460;SDS011;40371;49.414;11.010;2023-04-06T12:02:46;6.78;;;6.10;;
54460;SDS011;40371;49.414;11.010;2023-04-06T12:05:13;5.32;;;4.93;;
54460;SDS011;40371;49.414;11.010;2023-04-06T12:07:38;5.10;;;4.60;;
54460;SDS011;40371;49.414;11.010;2023-04-06T12:10:04;4.75;;;4.30;;
54460;SDS011;40371;49.414;11.010;2023-04-06T12:12:30;4.70;;;4.30;;
54460;SDS011;40371;49.414;11.010;2023-04-06T12:14:56;5.28;;;4.78;;
54460;SDS011;40371;49.414;11.010;2023-04-06T12:17:22;5.70;;;5.20;;
54460;SDS011;40371;49.414;11.010;2023-04-06T12:19:48;5.43;;;4.93;;
54460;SDS011;40371;49.414;11.010;2023-04-06T12:22:14;5.90;;;5.28;;
54460;SDS011;40371;49.414;11.010;2023-04-06T12:24:40;5.97;;;5.47;;
54460;SDS011;40371;49.414;11.010;2023-04-06T12:27:06;6.00;;;5.50;;
54460;SDS011;40371;49.414;11.010;2023-04-06T12:29:31;5.38;;;4.97;;
54460;SDS011;40371;49.414;11.010;2023-04-06T12:31:57;5.72;;;5.13;;
54460;SDS011;40371;49.414;11.010;2023-04-06T12:34:23;6.63;;;5.80;;
54460;SDS011;40371;49.414;11.010;2023-04-06T12:36:48;6.30;;;5.80;;
54460;SDS011;40371;49.414;11.010;2023-04-06T12:39:15;5.72;;;5.32;;
54460;SDS011;40371;49.414;11.010;2023-04-06T12:41:41;5.60;;;5.10;;
54460;SDS011;40371;49.414;11.010;2023-04-06T12:44:07;6.05;;;5.45;;
54460;SDS011;40371;49.414;11.010;2023-04-06T12:46:33;5.88;;;5.38;;
54460;SDS011;40371;49.414;11.010;2023-04-06T12:48:58;5.53;;;5.03;;
54460;SDS011;40371;49.414;11.010;2023-04-06T12:51:27;5.88;;;5.38;;
54460;SDS011;40371;49.414;11.010;2023-04-06T12:53:53;6.25;;;5.65;;
54460;SDS011;40371;49.414;11.010;2023-04-06T12:56:19;6.30;;;5.70;;
54460;SDS011;40371;49.414;11.010;2023-04-06T12:58:50;5.97;;;5.47;;
54460;SDS011;40371;49.414;11.010;2023-04-06T13:01:16;6.20;;;5.70;;
54460;SDS011;40371;49.414;11.010;2023-04-06T13:03:42;6.30;;;5.80;;
54460;SDS011;40371;49.414;11.010;2023-04-06T13:06:08;5.97;;;5.53;;
54460;SDS011;40371;49.414;11.010;2023-04-06T13:08:34;6.45;;;5.90;;
54460;SDS011;40371;49.414;11.010;2023-04-06T13:11:02;7.05;;;6.45;;
54460;SDS011;40371;49.414;11.010;2023-04-06T13:13:28;5.97;;;5.47;;
54460;SDS011;40371;49.414;11.010;2023-04-06T13:15:58;6.30;;;5.70;;
54460;SDS011;40371;49.414;11.010;2023-04-06T13:18:26;6.85;;;6.07;;
54460;SDS011;40371;49.414;11.010;2023-04-06T13:20:52;7.25;;;6.55;;
54460;SDS011;40371;49.414;11.010;2023-04-06T13:23:20;7.82;;;6.22;;
54460;SDS011;40371;49.414;11.010;2023-04-06T13:25:45;6.90;;;6.32;;
54460;SDS011;40371;49.414;11.010;2023-04-06T13:28:11;5.78;;;5.28;;
54460;SDS011;40371;49.414;11.010;2023-04-06T13:30:37;7.82;;;5.50;;
54460;SDS011;40371;49.414;11.010;2023-04-06T13:33:02;5.65;;;5.25;;
54460;SDS011;40371;49.414;11.010;2023-04-06T13:35:29;7.13;;;6.53;;
54460;SDS011;40371;49.414;11.010;2023-04-06T13:37:55;7.28;;;6.68;;
54460;SDS011;40371;49.414;11.010;2023-04-06T13:40:20;7.90;;;7.10;;
54460;SDS011;40371;49.414;11.010;2023-04-06T13:42:46;7.18;;;6.57;;
54460;SDS011;40371;49.414;11.010;2023-04-06T13:45:12;7.03;;;6.32;;
54460;SDS011;40371;49.414;11.010;2023-04-06T13:47:38;6.30;;;5.80;;
54460;SDS011;40371;49.414;11.010;2023-04-06T13:50:04;6.50;;;6.00;;
54460;SDS011;40371;49.414;11.010;2023-04-06T13:52:30;6.28;;;5.65;;
54460;SDS011;40371;49.414;11.010;2023-04-06T13:54:55;6.57;;;5.28;;
54460;SDS011;40371;49.414;11.010;2023-04-06T13:57:21;5.90;;;5.40;;
54460;SDS011;40371;49.414;11.010;2023-04-06T13:59:46;7.15;;;6.45;;
54460;SDS011;40371;49.414;11.010;2023-04-06T14:02:14;5.90;;;5.45;;
54460;SDS011;40371;49.414;11.010;2023-04-06T14:04:40;6.63;;;5.93;;
54460;SDS011;40371;49.414;11.010;2023-04-06T14:07:05;6.35;;;5.85;;
54460;SDS011;40371;49.414;11.010;2023-04-06T14:09:34;5.65;;;5.15;;
54460;SDS011;40371;49.414;11.010;2023-04-06T14:12:00;5.75;;;5.25;;
54460;SDS011;40371;49.414;11.010;2023-04-06T14:14:25;6.18;;;5.57;;
54460;SDS011;40371;49.414;11.010;2023-04-06T14:16:51;5.57;;;5.18;;
54460;SDS011;40371;49.414;11.010;2023-04-06T14:19:17;6.05;;;5.45;;
54460;SDS011;40371;49.414;11.010;2023-04-06T14:21:47;5.88;;;5.38;;
54460;SDS011;40371;49.414;11.010;2023-04-06T14:24:13;5.43;;;5.00;;
54460;SDS011;40371;49.414;11.010;2023-04-06T14:26:39;6.65;;;5.85;;
54460;SDS011;40371;49.414;11.010;2023-04-06T14:29:06;6.25;;;5.75;;
54460;SDS011;40371;49.414;11.010;2023-04-06T14:31:32;5.85;;;5.35;;
54460;SDS011;40371;49.414;11.010;2023-04-06T14:34:00;6.00;;;5.50;;
54460;SDS011;40371;49.414;11.010;2023-04-06T14:36:27;5.65;;;5.15;;
54460;SDS011;40371;49.414;11.010;2023-04-06T14:38:54;6.63;;;5.93;;
54460;SDS011;40371;49.414;11.010;2023-04-06T14:41:23;5.73;;;5.17;;
54460;SDS011;40371;49.414;11.010;2023-04-06T14:43:50;6.33;;;5.73;;